Accueil
METAR-TAF:

METAR-TAF

Aéroports :

La Chaux-de-Fonds, Suisse

Aéroport régional Les Éplatures

latitude: 47-05-03N, longitude: 006-47-37E, altitude: 1027 m

Observation

Le bulletin a été fait il y a 27 minutes, à 06:20 UTC
Vent 2 kt de ouest/sud-ouest
Température 12°C
Humidité 76%
Pression 1020 hPa
Visibilité 10 km ou plus
pas de nuages en-dessous de 1500 mètres et pas de cumulonimbus.

METAR: LSGC 220620Z 24002KT CAVOK 12/08 Q1020

Heure: 08:47 (06:47 UTC)

Prévision

Le bulletin a été fait il y a 1 heure et 22 minutes, à 05:25 UTC
Prévision valable du 22 à 06 UTC au 22 à 15 UTC
Vent 3 kt de direction variable
Visibilité 10 km ou plus
pas de nuages en-dessous de 1500 mètres et pas de cumulonimbus.
Evoluant progressivement
du 22 à 08 UTC au 22 à 10 UTC
Vent 10 kt de ouest/sud-ouest

TAF: LSGC 220525Z 2206/2215 VRB03KT CAVOK BECMG 2208/2210 25010KT

Observations et prévisions météorologiques de plus de 4000 aéroports (messages METAR et TAF).

Les stations disponibles sont représentées par des disques jaunes et rouges sur la carte.

Passer la souris dessus pour voir le nom de la station.

Cliquer dessus pour voir les observations et prévisions météorologiques.

Pour changer de carte: cliquez sur les boutons verts avec une croix noire pour zoomer, sur le bouton vert avec un tiret pour effectuer un zoom arrière, ou sur les flèches vertes pour les cartes adjacentes.


METAR-TAF: